PWSweather.com
Personal Weather Stations
Station Observations

San CostanzoIT

Lat: 43.783361, Lon: 13.081353

Elevation: 360

Station Type: PCE FWS 20

http://sancostanzometeo.altervista.org/

Latest ConditionsUpdated 3:58:47 AM GMT+01:01 Saturday, Jan 19, 2019
Currently Today's Max Today's Min Today's Average
Temperature 41.7°F5.4°C 44.1°F6.7°C 41.7°F5.4°C 43.2°F6.2°C
Dew Point 38.7°F3.7°C 40.5°F4.7°C 38.7°F3.7°C 40.0°F4.4°C
Winds 8.0 mph 12.9 kmh 9.6 mph -15.4 kmh - - 4.9 mph 7.9 kmh
Wind Gusts 8.8 mph14.2 kmh 11.2 mph18.0 kmh - -
Humidity 89% 89% 87% 88%
Pressure 29.91 in1012.9 mb 29.93 in1013.5 mb 29.91 in1012.9 mb -
Precipitation - 0.01 in0.3 mm - -
Hour Temp Dew Point Humidity Winds Wind Gusts Pressure Precip Precip Rate Daily Precip Total
03:58 AM 41.7°F5.4°C 38.7°F3.7°C 89% 8.0 mph 12.9 kmh 8.8 mph14.2 kmh 29.91 in1012.9 mb 0.00 in0.0 mm 0.00 in0.0 mm 0.01 in0.3 mm
03:48 AM 42.6°F5.9°C 39.6°F4.2°C 89% 9.6 mph 15.4 kmh 11.2 mph18.0 kmh 29.92 in1013.2 mb 0.00 in0.0 mm 0.00 in0.0 mm 0.01 in0.3 mm
03:39 AM 42.4°F5.8°C 39.4°F4.1°C 89% 8.0 mph 12.9 kmh 10.4 mph16.7 kmh 29.92 in1013.2 mb 0.00 in0.0 mm 0.00 in0.0 mm 0.01 in0.3 mm
03:28 AM 42.8°F6.0°C 39.8°F4.3°C 89% 6.4 mph 10.3 kmh 7.2 mph11.6 kmh 29.92 in1013.2 mb 0.00 in0.0 mm 0.00 in0.0 mm 0.01 in0.3 mm
03:18 AM 42.8°F6.0°C 39.8°F4.3°C 89% 5.6 mph 9.0 kmh 6.4 mph10.3 kmh 29.92 in1013.2 mb 0.00 in0.0 mm 0.00 in0.0 mm 0.01 in0.3 mm
03:09 AM 42.8°F6.0°C 39.8°F4.3°C 89% 4.8 mph 7.7 kmh 5.6 mph9.0 kmh 29.91 in1012.9 mb 0.00 in0.0 mm 0.00 in0.0 mm 0.01 in0.3 mm
02:58 AM 43.0°F6.1°C 40.0°F4.4°C 89% 4.0 mph 6.4 kmh 4.8 mph7.7 kmh 29.92 in1013.2 mb 0.00 in0.0 mm 0.00 in0.0 mm 0.01 in0.3 mm
02:48 AM 43.0°F6.1°C 40.0°F4.4°C 89% 6.4 mph 10.3 kmh 7.2 mph11.6 kmh 29.92 in1013.2 mb 0.00 in0.0 mm 0.00 in0.0 mm 0.01 in0.3 mm
02:38 AM 43.0°F6.1°C 40.0°F4.4°C 89% 5.6 mph 9.0 kmh 7.2 mph11.6 kmh 29.92 in1013.2 mb 0.00 in0.0 mm 0.00 in0.0 mm 0.01 in0.3 mm
02:28 AM 43.3°F6.3°C 40.3°F4.6°C 89% 4.8 mph 7.7 kmh 5.6 mph9.0 kmh 29.92 in1013.2 mb 0.00 in0.0 mm 0.00 in0.0 mm 0.01 in0.3 mm
02:18 AM 43.5°F6.4°C 40.5°F4.7°C 89% 3.2 mph 5.1 kmh 4.8 mph7.7 kmh 29.92 in1013.2 mb 0.01 in0.3 mm 0.00 in0.0 mm 0.01 in0.3 mm
02:08 AM 43.5°F6.4°C 40.5°F4.7°C 89% 5.6 mph 9.0 kmh 7.2 mph11.6 kmh 29.93 in1013.5 mb 0.01 in0.3 mm 0.00 in0.0 mm 0.01 in0.3 mm
01:58 AM 43.3°F6.3°C 40.0°F4.4°C 88% 4.0 mph 6.4 kmh 4.8 mph7.7 kmh 29.92 in1013.2 mb 0.01 in0.3 mm 0.00 in0.0 mm 0.01 in0.3 mm
01:48 AM 43.2°F6.2°C 39.9°F4.4°C 88% 4.8 mph 7.7 kmh 6.4 mph10.3 kmh 29.92 in1013.2 mb 0.01 in0.3 mm 0.00 in0.0 mm 0.01 in0.3 mm
01:38 AM 43.3°F6.3°C 40.0°F4.4°C 88% 4.8 mph 7.7 kmh 5.6 mph9.0 kmh 29.92 in1013.2 mb 0.01 in0.3 mm 0.00 in0.0 mm 0.01 in0.3 mm
01:29 AM 43.3°F6.3°C 40.0°F4.4°C 88% 4.8 mph 7.7 kmh 5.6 mph9.0 kmh 29.92 in1013.2 mb 0.01 in0.3 mm 0.06 in1.5 mm 0.01 in0.3 mm
01:18 AM 43.3°F6.3°C 40.0°F4.4°C 88% 2.4 mph 3.9 kmh 3.2 mph5.1 kmh 29.93 in1013.5 mb 0.00 in0.0 mm 0.00 in0.0 mm 0.00 in0.0 mm
01:08 AM 43.5°F6.4°C 40.2°F4.6°C 88% 4.8 mph 7.7 kmh 5.6 mph9.0 kmh 29.92 in1013.2 mb 0.00 in0.0 mm 0.00 in0.0 mm 0.00 in0.0 mm
12:58 AM 43.5°F6.4°C 40.2°F4.6°C 88% 3.2 mph 5.1 kmh 4.0 mph6.4 kmh 29.93 in1013.5 mb 0.00 in0.0 mm 0.00 in0.0 mm 0.00 in0.0 mm
12:48 AM 43.5°F6.4°C 39.9°F4.4°C 87% 4.0 mph 6.4 kmh 5.6 mph9.0 kmh 29.93 in1013.5 mb 0.00 in0.0 mm 0.00 in0.0 mm 0.00 in0.0 mm
12:38 AM 43.9°F6.6°C 40.3°F4.6°C 87% 4.0 mph 6.4 kmh 4.8 mph7.7 kmh 29.92 in1013.2 mb 0.00 in0.0 mm 0.00 in0.0 mm 0.00 in0.0 mm
12:28 AM 43.9°F6.6°C 40.3°F4.6°C 87% 3.2 mph 5.1 kmh 4.0 mph6.4 kmh 29.93 in1013.5 mb 0.00 in0.0 mm 0.00 in0.0 mm 0.00 in0.0 mm
12:18 AM 44.1°F6.7°C 40.4°F4.7°C 87% 2.4 mph 3.9 kmh 3.2 mph5.1 kmh 29.93 in1013.5 mb 0.00 in0.0 mm 0.00 in0.0 mm 0.00 in0.0 mm
12:08 AM 44.1°F6.7°C 40.4°F4.7°C 87% 2.4 mph 3.9 kmh 3.2 mph5.1 kmh 29.93 in1013.5 mb 0.00 in0.0 mm 0.00 in0.0 mm 0.00 in0.0 mm